sensor_id;sensor_type;location;lat;lon;timestamp;temperature;humidity
16827;DHT22;8530;49.540;8.576;2023-04-03T00:00:28;4.10;71.90
16827;DHT22;8530;49.540;8.576;2023-04-03T00:02:55;4.00;71.90
16827;DHT22;8530;49.540;8.576;2023-04-03T00:05:22;4.00;72.00
16827;DHT22;8530;49.540;8.576;2023-04-03T00:07:49;4.00;72.10
16827;DHT22;8530;49.540;8.576;2023-04-03T00:10:16;4.00;72.20
16827;DHT22;8530;49.540;8.576;2023-04-03T00:12:43;3.90;72.10
16827;DHT22;8530;49.540;8.576;2023-04-03T00:15:11;3.90;72.20
16827;DHT22;8530;49.540;8.576;2023-04-03T00:17:38;3.80;72.20
16827;DHT22;8530;49.540;8.576;2023-04-03T00:20:06;3.80;72.30
16827;DHT22;8530;49.540;8.576;2023-04-03T00:22:32;3.70;72.40
16827;DHT22;8530;49.540;8.576;2023-04-03T00:24:59;3.70;72.50
16827;DHT22;8530;49.540;8.576;2023-04-03T00:27:26;3.60;72.50
16827;DHT22;8530;49.540;8.576;2023-04-03T00:29:53;3.60;72.60
16827;DHT22;8530;49.540;8.576;2023-04-03T00:32:21;3.60;72.70
16827;DHT22;8530;49.540;8.576;2023-04-03T00:34:47;3.50;72.80
16827;DHT22;8530;49.540;8.576;2023-04-03T00:37:14;3.50;72.90
16827;DHT22;8530;49.540;8.576;2023-04-03T00:39:41;3.50;73.00
16827;DHT22;8530;49.540;8.576;2023-04-03T00:42:08;3.40;73.10
16827;DHT22;8530;49.540;8.576;2023-04-03T00:47:41;3.40;73.50
16827;DHT22;8530;49.540;8.576;2023-04-03T00:50:08;3.30;73.30
16827;DHT22;8530;49.540;8.576;2023-04-03T00:52:36;3.30;73.50
16827;DHT22;8530;49.540;8.576;2023-04-03T00:55:06;3.30;73.60
16827;DHT22;8530;49.540;8.576;2023-04-03T00:57:34;3.30;73.80
16827;DHT22;8530;49.540;8.576;2023-04-03T01:00:04;3.30;73.90
16827;DHT22;8530;49.540;8.576;2023-04-03T01:02:31;3.30;74.00
16827;DHT22;8530;49.540;8.576;2023-04-03T01:04:59;3.30;74.10
16827;DHT22;8530;49.540;8.576;2023-04-03T01:07:29;3.30;74.20
16827;DHT22;8530;49.540;8.576;2023-04-03T01:09:57;3.30;74.20
16827;DHT22;8530;49.540;8.576;2023-04-03T01:12:26;3.30;74.30
16827;DHT22;8530;49.540;8.576;2023-04-03T01:14:54;3.30;74.50
16827;DHT22;8530;49.540;8.576;2023-04-03T01:17:30;3.30;74.60
16827;DHT22;8530;49.540;8.576;2023-04-03T01:23:00;3.20;75.00
16827;DHT22;8530;49.540;8.576;2023-04-03T01:25:32;3.20;75.00
16827;DHT22;8530;49.540;8.576;2023-04-03T01:27:59;3.10;75.60
16827;DHT22;8530;49.540;8.576;2023-04-03T01:30:30;3.10;75.30
16827;DHT22;8530;49.540;8.576;2023-04-03T01:32:59;3.10;75.60
16827;DHT22;8530;49.540;8.576;2023-04-03T01:35:26;3.10;75.80
16827;DHT22;8530;49.540;8.576;2023-04-03T01:37:52;3.00;75.90
16827;DHT22;8530;49.540;8.576;2023-04-03T01:40:19;3.00;76.10
16827;DHT22;8530;49.540;8.576;2023-04-03T01:42:46;3.00;76.40
16827;DHT22;8530;49.540;8.576;2023-04-03T01:45:13;2.90;76.50
16827;DHT22;8530;49.540;8.576;2023-04-03T01:47:40;2.90;76.80
16827;DHT22;8530;49.540;8.576;2023-04-03T01:50:08;2.90;77.00
16827;DHT22;8530;49.540;8.576;2023-04-03T01:52:35;2.90;77.30
16827;DHT22;8530;49.540;8.576;2023-04-03T01:55:02;2.80;77.40
16827;DHT22;8530;49.540;8.576;2023-04-03T01:57:29;2.80;77.70
16827;DHT22;8530;49.540;8.576;2023-04-03T01:59:56;2.80;77.90
16827;DHT22;8530;49.540;8.576;2023-04-03T02:02:23;2.70;78.20
16827;DHT22;8530;49.540;8.576;2023-04-03T02:04:50;2.70;78.90
16827;DHT22;8530;49.540;8.576;2023-04-03T02:07:18;2.70;78.70
16827;DHT22;8530;49.540;8.576;2023-04-03T02:09:45;2.70;78.90
16827;DHT22;8530;49.540;8.576;2023-04-03T02:12:11;2.60;79.20
16827;DHT22;8530;49.540;8.576;2023-04-03T02:14:38;2.60;79.50
16827;DHT22;8530;49.540;8.576;2023-04-03T02:17:05;2.60;79.80
16827;DHT22;8530;49.540;8.576;2023-04-03T02:19:34;2.50;80.10
16827;DHT22;8530;49.540;8.576;2023-04-03T02:22:00;2.50;80.30
16827;DHT22;8530;49.540;8.576;2023-04-03T02:24:28;2.50;80.80
16827;DHT22;8530;49.540;8.576;2023-04-03T02:26:55;2.40;81.00
16827;DHT22;8530;49.540;8.576;2023-04-03T02:29:22;2.50;81.40
16827;DHT22;8530;49.540;8.576;2023-04-03T02:31:49;2.40;81.70
16827;DHT22;8530;49.540;8.576;2023-04-03T02:34:16;2.40;82.00
16827;DHT22;8530;49.540;8.576;2023-04-03T02:36:42;2.40;82.40
16827;DHT22;8530;49.540;8.576;2023-04-03T02:39:10;2.40;82.80
16827;DHT22;8530;49.540;8.576;2023-04-03T02:41:38;2.30;83.10
16827;DHT22;8530;49.540;8.576;2023-04-03T02:44:09;2.30;83.40
16827;DHT22;8530;49.540;8.576;2023-04-03T02:46:37;2.30;83.90
16827;DHT22;8530;49.540;8.576;2023-04-03T02:49:03;2.30;84.10
16827;DHT22;8530;49.540;8.576;2023-04-03T02:51:31;2.30;84.50
16827;DHT22;8530;49.540;8.576;2023-04-03T02:53:58;2.30;84.90
16827;DHT22;8530;49.540;8.576;2023-04-03T02:56:25;2.30;85.80
16827;DHT22;8530;49.540;8.576;2023-04-03T02:58:53;2.20;85.50
16827;DHT22;8530;49.540;8.576;2023-04-03T03:01:20;2.30;85.90
16827;DHT22;8530;49.540;8.576;2023-04-03T03:03:47;2.30;86.20
16827;DHT22;8530;49.540;8.576;2023-04-03T03:06:15;2.20;86.40
16827;DHT22;8530;49.540;8.576;2023-04-03T03:08:42;2.20;86.70
16827;DHT22;8530;49.540;8.576;2023-04-03T03:11:10;2.20;87.00
16827;DHT22;8530;49.540;8.576;2023-04-03T03:13:37;2.20;87.40
16827;DHT22;8530;49.540;8.576;2023-04-03T03:16:06;2.20;87.70
16827;DHT22;8530;49.540;8.576;2023-04-03T03:18:32;2.20;88.00
16827;DHT22;8530;49.540;8.576;2023-04-03T03:21:00;2.10;88.10
16827;DHT22;8530;49.540;8.576;2023-04-03T03:23:29;2.10;88.50
16827;DHT22;8530;49.540;8.576;2023-04-03T03:25:56;2.10;88.80
16827;DHT22;8530;49.540;8.576;2023-04-03T03:28:23;2.00;88.90
16827;DHT22;8530;49.540;8.576;2023-04-03T03:30:50;2.00;89.20
16827;DHT22;8530;49.540;8.576;2023-04-03T03:33:18;2.00;89.50
16827;DHT22;8530;49.540;8.576;2023-04-03T03:35:45;1.90;89.70
16827;DHT22;8530;49.540;8.576;2023-04-03T03:38:12;2.00;90.00
16827;DHT22;8530;49.540;8.576;2023-04-03T03:40:39;1.90;90.10
16827;DHT22;8530;49.540;8.576;2023-04-03T03:43:06;1.90;90.30
16827;DHT22;8530;49.540;8.576;2023-04-03T03:45:33;1.80;90.40
16827;DHT22;8530;49.540;8.576;2023-04-03T03:48:00;1.80;90.50
16827;DHT22;8530;49.540;8.576;2023-04-03T03:50:28;1.80;90.60
16827;DHT22;8530;49.540;8.576;2023-04-03T03:52:55;1.80;90.80
16827;DHT22;8530;49.540;8.576;2023-04-03T03:55:22;1.80;90.90
16827;DHT22;8530;49.540;8.576;2023-04-03T03:57:48;1.80;91.00
16827;DHT22;8530;49.540;8.576;2023-04-03T04:00:15;1.70;91.10
16827;DHT22;8530;49.540;8.576;2023-04-03T04:02:42;1.70;91.30
16827;DHT22;8530;49.540;8.576;2023-04-03T04:05:10;1.70;91.40
16827;DHT22;8530;49.540;8.576;2023-04-03T04:07:38;1.70;91.50
16827;DHT22;8530;49.540;8.576;2023-04-03T04:10:05;1.70;91.60
16827;DHT22;8530;49.540;8.576;2023-04-03T04:12:32;1.70;91.70
16827;DHT22;8530;49.540;8.576;2023-04-03T04:15:00;1.60;91.80
16827;DHT22;8530;49.540;8.576;2023-04-03T04:17:27;1.60;91.90
16827;DHT22;8530;49.540;8.576;2023-04-03T04:19:54;1.60;92.00
16827;DHT22;8530;49.540;8.576;2023-04-03T04:22:21;1.50;92.10
16827;DHT22;8530;49.540;8.576;2023-04-03T04:24:49;1.50;92.30
16827;DHT22;8530;49.540;8.576;2023-04-03T04:27:16;1.50;92.50
16827;DHT22;8530;49.540;8.576;2023-04-03T04:29:42;1.40;92.60
16827;DHT22;8530;49.540;8.576;2023-04-03T04:32:09;1.40;92.70
16827;DHT22;8530;49.540;8.576;2023-04-03T04:34:36;1.40;92.80
16827;DHT22;8530;49.540;8.576;2023-04-03T04:37:02;1.40;93.00
16827;DHT22;8530;49.540;8.576;2023-04-03T04:39:29;1.50;93.10
16827;DHT22;8530;49.540;8.576;2023-04-03T04:41:57;1.40;93.20
16827;DHT22;8530;49.540;8.576;2023-04-03T04:44:24;1.40;93.30
16827;DHT22;8530;49.540;8.576;2023-04-03T04:46:50;1.40;93.40
16827;DHT22;8530;49.540;8.576;2023-04-03T04:49:17;1.40;93.50
16827;DHT22;8530;49.540;8.576;2023-04-03T04:51:44;1.30;93.50
16827;DHT22;8530;49.540;8.576;2023-04-03T04:54:11;1.30;93.70
16827;DHT22;8530;49.540;8.576;2023-04-03T04:56:37;1.40;93.80
16827;DHT22;8530;49.540;8.576;2023-04-03T04:59:06;1.40;93.90
16827;DHT22;8530;49.540;8.576;2023-04-03T05:01:32;1.50;93.90
16827;DHT22;8530;49.540;8.576;2023-04-03T05:03:59;1.50;94.00
16827;DHT22;8530;49.540;8.576;2023-04-03T05:06:26;1.50;94.00
16827;DHT22;8530;49.540;8.576;2023-04-03T05:08:52;1.50;94.10
16827;DHT22;8530;49.540;8.576;2023-04-03T05:11:19;1.50;94.20
16827;DHT22;8530;49.540;8.576;2023-04-03T05:13:46;1.60;94.30
16827;DHT22;8530;49.540;8.576;2023-04-03T05:16:15;1.60;94.40
16827;DHT22;8530;49.540;8.576;2023-04-03T05:18:42;1.60;94.50
16827;DHT22;8530;49.540;8.576;2023-04-03T05:21:08;1.60;94.50
16827;DHT22;8530;49.540;8.576;2023-04-03T05:23:35;1.70;94.60
16827;DHT22;8530;49.540;8.576;2023-04-03T05:26:02;1.70;94.70
16827;DHT22;8530;49.540;8.576;2023-04-03T05:28:29;1.80;94.80
16827;DHT22;8530;49.540;8.576;2023-04-03T05:30:57;1.80;94.80
16827;DHT22;8530;49.540;8.576;2023-04-03T05:33:25;1.90;94.90
16827;DHT22;8530;49.540;8.576;2023-04-03T05:35:52;1.90;95.00
16827;DHT22;8530;49.540;8.576;2023-04-03T05:38:19;2.00;95.10
16827;DHT22;8530;49.540;8.576;2023-04-03T05:40:46;2.10;95.20
16827;DHT22;8530;49.540;8.576;2023-04-03T05:43:13;2.10;95.20
16827;DHT22;8530;49.540;8.576;2023-04-03T05:45:40;2.20;95.20
16827;DHT22;8530;49.540;8.576;2023-04-03T05:48:06;2.30;95.30
16827;DHT22;8530;49.540;8.576;2023-04-03T05:50:34;2.40;95.30
16827;DHT22;8530;49.540;8.576;2023-04-03T05:53:06;2.40;95.30
16827;DHT22;8530;49.540;8.576;2023-04-03T05:55:33;2.50;95.40
16827;DHT22;8530;49.540;8.576;2023-04-03T05:58:00;2.60;95.50
16827;DHT22;8530;49.540;8.576;2023-04-03T06:00:27;2.70;95.70
16827;DHT22;8530;49.540;8.576;2023-04-03T06:02:54;2.90;95.80
16827;DHT22;8530;49.540;8.576;2023-04-03T06:05:20;3.00;95.80
16827;DHT22;8530;49.540;8.576;2023-04-03T06:07:49;3.10;95.80
16827;DHT22;8530;49.540;8.576;2023-04-03T06:10:16;3.20;95.80
16827;DHT22;8530;49.540;8.576;2023-04-03T06:12:42;3.40;96.00
16827;DHT22;8530;49.540;8.576;2023-04-03T06:15:10;4.10;97.90
16827;DHT22;8530;49.540;8.576;2023-04-03T06:17:37;6.10;99.70
16827;DHT22;8530;49.540;8.576;2023-04-03T06:20:05;8.70;99.90
16827;DHT22;8530;49.540;8.576;2023-04-03T06:22:31;11.40;99.90
16827;DHT22;8530;49.540;8.576;2023-04-03T06:24:59;13.80;99.10
16827;DHT22;8530;49.540;8.576;2023-04-03T06:27:26;15.80;96.90
16827;DHT22;8530;49.540;8.576;2023-04-03T06:29:53;17.40;94.60
16827;DHT22;8530;49.540;8.576;2023-04-03T06:32:20;18.70;91.50
16827;DHT22;8530;49.540;8.576;2023-04-03T06:34:46;19.50;85.20
16827;DHT22;8530;49.540;8.576;2023-04-03T06:37:15;20.60;80.10
16827;DHT22;8530;49.540;8.576;2023-04-03T06:39:43;20.60;71.10
16827;DHT22;8530;49.540;8.576;2023-04-03T06:42:11;20.10;65.60
16827;DHT22;8530;49.540;8.576;2023-04-03T06:44:38;18.90;58.10
16827;DHT22;8530;49.540;8.576;2023-04-03T06:47:05;18.00;57.10
16827;DHT22;8530;49.540;8.576;2023-04-03T06:49:31;18.60;57.00
16827;DHT22;8530;49.540;8.576;2023-04-03T06:51:58;20.00;58.40
16827;DHT22;8530;49.540;8.576;2023-04-03T06:54:25;21.20;56.30
16827;DHT22;8530;49.540;8.576;2023-04-03T06:56:52;21.80;53.60
16827;DHT22;8530;49.540;8.576;2023-04-03T06:59:20;22.50;51.80
16827;DHT22;8530;49.540;8.576;2023-04-03T07:01:46;23.60;49.40
16827;DHT22;8530;49.540;8.576;2023-04-03T07:04:14;24.90;48.10
16827;DHT22;8530;49.540;8.576;2023-04-03T07:06:41;25.90;44.90
16827;DHT22;8530;49.540;8.576;2023-04-03T07:09:08;26.10;41.70
16827;DHT22;8530;49.540;8.576;2023-04-03T07:11:36;26.30;38.50
16827;DHT22;8530;49.540;8.576;2023-04-03T07:14:02;26.50;36.80
16827;DHT22;8530;49.540;8.576;2023-04-03T07:16:30;26.80;34.50
16827;DHT22;8530;49.540;8.576;2023-04-03T07:18:57;26.30;32.60
16827;DHT22;8530;49.540;8.576;2023-04-03T07:21:24;26.30;31.80
16827;DHT22;8530;49.540;8.576;2023-04-03T07:23:51;26.00;30.30
16827;DHT22;8530;49.540;8.576;2023-04-03T07:26:18;24.60;28.30
16827;DHT22;8530;49.540;8.576;2023-04-03T07:28:46;22.90;27.20
16827;DHT22;8530;49.540;8.576;2023-04-03T07:31:14;21.80;27.80
16827;DHT22;8530;49.540;8.576;2023-04-03T07:33:43;21.50;28.50
16827;DHT22;8530;49.540;8.576;2023-04-03T07:36:15;21.90;29.30
16827;DHT22;8530;49.540;8.576;2023-04-03T07:38:42;22.80;29.60
16827;DHT22;8530;49.540;8.576;2023-04-03T07:41:11;23.60;29.60
16827;DHT22;8530;49.540;8.576;2023-04-03T07:43:38;24.10;28.90
16827;DHT22;8530;49.540;8.576;2023-04-03T07:46:06;24.70;28.70
16827;DHT22;8530;49.540;8.576;2023-04-03T07:48:33;25.20;28.10
16827;DHT22;8530;49.540;8.576;2023-04-03T07:51:02;25.20;26.60
16827;DHT22;8530;49.540;8.576;2023-04-03T07:53:29;25.50;26.70
16827;DHT22;8530;49.540;8.576;2023-04-03T07:55:56;25.70;26.30
16827;DHT22;8530;49.540;8.576;2023-04-03T07:58:24;26.00;25.80
16827;DHT22;8530;49.540;8.576;2023-04-03T08:00:51;26.50;25.50
16827;DHT22;8530;49.540;8.576;2023-04-03T08:03:18;26.50;24.50
16827;DHT22;8530;49.540;8.576;2023-04-03T08:05:47;26.80;24.30
16827;DHT22;8530;49.540;8.576;2023-04-03T08:08:17;27.00;23.60
16827;DHT22;8530;49.540;8.576;2023-04-03T08:10:43;27.30;23.10
16827;DHT22;8530;49.540;8.576;2023-04-03T08:13:14;27.40;23.00
16827;DHT22;8530;49.540;8.576;2023-04-03T08:15:40;27.70;23.10
16827;DHT22;8530;49.540;8.576;2023-04-03T08:18:07;27.70;22.20
16827;DHT22;8530;49.540;8.576;2023-04-03T08:20:34;27.80;21.60
16827;DHT22;8530;49.540;8.576;2023-04-03T08:23:00;27.70;21.40
16827;DHT22;8530;49.540;8.576;2023-04-03T08:25:28;27.50;20.20
16827;DHT22;8530;49.540;8.576;2023-04-03T08:27:56;27.00;19.90
16827;DHT22;8530;49.540;8.576;2023-04-03T08:30:23;26.90;19.70
16827;DHT22;8530;49.540;8.576;2023-04-03T08:32:49;26.50;18.90
16827;DHT22;8530;49.540;8.576;2023-04-03T08:35:16;25.60;18.50
16827;DHT22;8530;49.540;8.576;2023-04-03T08:37:43;25.00;18.50
16827;DHT22;8530;49.540;8.576;2023-04-03T08:40:15;24.50;18.20
16827;DHT22;8530;49.540;8.576;2023-04-03T08:42:50;23.70;17.40
16827;DHT22;8530;49.540;8.576;2023-04-03T08:45:21;22.30;16.30
16827;DHT22;8530;49.540;8.576;2023-04-03T08:47:53;20.80;15.90
16827;DHT22;8530;49.540;8.576;2023-04-03T08:50:29;19.10;15.90
16827;DHT22;8530;49.540;8.576;2023-04-03T08:52:58;17.30;15.70
16827;DHT22;8530;49.540;8.576;2023-04-03T08:55:27;16.00;16.20
16827;DHT22;8530;49.540;8.576;2023-04-03T08:58:00;14.80;16.50
16827;DHT22;8530;49.540;8.576;2023-04-03T09:00:32;13.80;17.10
16827;DHT22;8530;49.540;8.576;2023-04-03T09:03:01;13.10;17.40
16827;DHT22;8530;49.540;8.576;2023-04-03T09:05:35;12.60;18.20
16827;DHT22;8530;49.540;8.576;2023-04-03T09:08:12;12.30;18.30
16827;DHT22;8530;49.540;8.576;2023-04-03T09:10:41;12.40;18.90
16827;DHT22;8530;49.540;8.576;2023-04-03T09:13:17;12.50;19.20
16827;DHT22;8530;49.540;8.576;2023-04-03T09:15:47;12.50;19.80
16827;DHT22;8530;49.540;8.576;2023-04-03T09:18:18;12.70;20.50
16827;DHT22;8530;49.540;8.576;2023-04-03T09:20:52;12.60;20.20
16827;DHT22;8530;49.540;8.576;2023-04-03T09:23:24;12.40;20.40
16827;DHT22;8530;49.540;8.576;2023-04-03T09:25:56;12.30;20.70
16827;DHT22;8530;49.540;8.576;2023-04-03T09:28:26;12.20;20.90
16827;DHT22;8530;49.540;8.576;2023-04-03T09:30:53;12.30;21.20
16827;DHT22;8530;49.540;8.576;2023-04-03T09:33:20;12.20;21.50
16827;DHT22;8530;49.540;8.576;2023-04-03T09:35:48;12.30;21.80
16827;DHT22;8530;49.540;8.576;2023-04-03T09:38:18;12.30;21.90
16827;DHT22;8530;49.540;8.576;2023-04-03T09:40:47;12.40;22.00
16827;DHT22;8530;49.540;8.576;2023-04-03T09:43:30;12.60;22.20
16827;DHT22;8530;49.540;8.576;2023-04-03T09:46:17;12.60;22.30
16827;DHT22;8530;49.540;8.576;2023-04-03T09:48:51;12.50;22.40
16827;DHT22;8530;49.540;8.576;2023-04-03T09:51:18;12.60;22.70
16827;DHT22;8530;49.540;8.576;2023-04-03T09:53:44;12.70;22.80
16827;DHT22;8530;49.540;8.576;2023-04-03T09:56:21;12.70;22.80
16827;DHT22;8530;49.540;8.576;2023-04-03T09:58:50;12.80;23.10
16827;DHT22;8530;49.540;8.576;2023-04-03T10:01:23;12.90;23.30
16827;DHT22;8530;49.540;8.576;2023-04-03T10:04:08;12.90;23.10
16827;DHT22;8530;49.540;8.576;2023-04-03T10:06:37;12.70;22.90
16827;DHT22;8530;49.540;8.576;2023-04-03T10:09:21;12.60;23.10
16827;DHT22;8530;49.540;8.576;2023-04-03T10:12:00;12.50;23.20
16827;DHT22;8530;49.540;8.576;2023-04-03T10:14:29;12.50;23.30
16827;DHT22;8530;49.540;8.576;2023-04-03T10:17:02;12.40;23.30
16827;DHT22;8530;49.540;8.576;2023-04-03T10:19:39;12.50;23.60
16827;DHT22;8530;49.540;8.576;2023-04-03T10:22:16;12.70;23.60
16827;DHT22;8530;49.540;8.576;2023-04-03T10:24:50;12.90;23.70
16827;DHT22;8530;49.540;8.576;2023-04-03T10:27:22;13.00;23.50
16827;DHT22;8530;49.540;8.576;2023-04-03T10:29:59;12.80;23.40
16827;DHT22;8530;49.540;8.576;2023-04-03T10:32:44;12.90;23.60
16827;DHT22;8530;49.540;8.576;2023-04-03T10:35:19;13.00;23.50
16827;DHT22;8530;49.540;8.576;2023-04-03T10:37:59;13.00;23.30
16827;DHT22;8530;49.540;8.576;2023-04-03T10:40:33;13.10;23.40
16827;DHT22;8530;49.540;8.576;2023-04-03T10:43:06;13.30;23.50
16827;DHT22;8530;49.540;8.576;2023-04-03T10:45:48;13.40;23.40
16827;DHT22;8530;49.540;8.576;2023-04-03T10:48:19;13.60;23.60
16827;DHT22;8530;49.540;8.576;2023-04-03T10:50:59;13.80;23.50
16827;DHT22;8530;49.540;8.576;2023-04-03T10:53:33;13.90;23.50
16827;DHT22;8530;49.540;8.576;2023-04-03T10:56:05;13.80;23.30
16827;DHT22;8530;49.540;8.576;2023-04-03T10:58:38;14.00;23.50
16827;DHT22;8530;49.540;8.576;2023-04-03T11:01:10;14.20;23.50
16827;DHT22;8530;49.540;8.576;2023-04-03T11:03:42;14.20;23.40
16827;DHT22;8530;49.540;8.576;2023-04-03T11:06:11;14.00;23.20
16827;DHT22;8530;49.540;8.576;2023-04-03T11:08:45;13.70;23.20
16827;DHT22;8530;49.540;8.576;2023-04-03T11:11:17;13.60;23.10
16827;DHT22;8530;49.540;8.576;2023-04-03T11:13:49;13.60;23.20
16827;DHT22;8530;49.540;8.576;2023-04-03T11:16:22;13.60;23.20
16827;DHT22;8530;49.540;8.576;2023-04-03T11:18:52;13.60;23.30
16827;DHT22;8530;49.540;8.576;2023-04-03T11:21:26;13.70;23.30
16827;DHT22;8530;49.540;8.576;2023-04-03T11:23:56;13.80;23.40
16827;DHT22;8530;49.540;8.576;2023-04-03T11:26:27;13.60;23.20
16827;DHT22;8530;49.540;8.576;2023-04-03T11:28:59;13.40;23.20
16827;DHT22;8530;49.540;8.576;2023-04-03T11:31:37;13.30;23.30
16827;DHT22;8530;49.540;8.576;2023-04-03T11:34:14;13.40;23.40
16827;DHT22;8530;49.540;8.576;2023-04-03T11:36:48;13.50;23.40
16827;DHT22;8530;49.540;8.576;2023-04-03T11:39:20;13.60;23.20
16827;DHT22;8530;49.540;8.576;2023-04-03T11:41:49;13.60;23.10
16827;DHT22;8530;49.540;8.576;2023-04-03T11:44:32;13.50;23.10
16827;DHT22;8530;49.540;8.576;2023-04-03T11:47:02;13.50;23.20
16827;DHT22;8530;49.540;8.576;2023-04-03T11:49:55;13.30;23.10
16827;DHT22;8530;49.540;8.576;2023-04-03T11:52:57;13.10;23.10
16827;DHT22;8530;49.540;8.576;2023-04-03T11:55:46;12.80;23.10
16827;DHT22;8530;49.540;8.576;2023-04-03T11:58:18;12.50;23.30
16827;DHT22;8530;49.540;8.576;2023-04-03T12:00:54;12.40;23.50
16827;DHT22;8530;49.540;8.576;2023-04-03T12:09:33;13.20;24.10
16827;DHT22;8530;49.540;8.576;2023-04-03T12:12:01;13.20;23.90
16827;DHT22;8530;49.540;8.576;2023-04-03T12:14:47;13.20;23.80
16827;DHT22;8530;49.540;8.576;2023-04-03T12:17:21;13.10;23.80
16827;DHT22;8530;49.540;8.576;2023-04-03T12:19:50;12.90;23.90
16827;DHT22;8530;49.540;8.576;2023-04-03T12:22:18;12.70;24.00
16827;DHT22;8530;49.540;8.576;2023-04-03T12:24:47;12.50;23.90
16827;DHT22;8530;49.540;8.576;2023-04-03T12:27:28;12.60;24.10
16827;DHT22;8530;49.540;8.576;2023-04-03T12:30:12;12.60;24.10
16827;DHT22;8530;49.540;8.576;2023-04-03T12:33:02;12.90;24.20
16827;DHT22;8530;49.540;8.576;2023-04-03T12:35:37;13.20;24.10
16827;DHT22;8530;49.540;8.576;2023-04-03T12:38:35;13.70;24.20
16827;DHT22;8530;49.540;8.576;2023-04-03T12:41:18;14.00;24.00
16827;DHT22;8530;49.540;8.576;2023-04-03T12:43:54;14.20;24.00
16827;DHT22;8530;49.540;8.576;2023-04-03T12:46:24;14.20;23.80
16827;DHT22;8530;49.540;8.576;2023-04-03T12:48:54;14.00;23.60
16827;DHT22;8530;49.540;8.576;2023-04-03T12:51:28;13.80;23.70
16827;DHT22;8530;49.540;8.576;2023-04-03T12:54:01;13.80;23.60
16827;DHT22;8530;49.540;8.576;2023-04-03T12:56:30;13.60;23.50
16827;DHT22;8530;49.540;8.576;2023-04-03T12:59:14;13.60;23.70
16827;DHT22;8530;49.540;8.576;2023-04-03T13:01:41;13.60;23.80
16827;DHT22;8530;49.540;8.576;2023-04-03T13:04:10;13.50;23.70
16827;DHT22;8530;49.540;8.576;2023-04-03T13:06:41;13.30;23.70
16827;DHT22;8530;49.540;8.576;2023-04-03T13:09:19;13.30;24.00
16827;DHT22;8530;49.540;8.576;2023-04-03T13:11:49;13.00;23.90
16827;DHT22;8530;49.540;8.576;2023-04-03T13:14:18;12.70;23.70
16827;DHT22;8530;49.540;8.576;2023-04-03T13:16:53;12.40;23.80
16827;DHT22;8530;49.540;8.576;2023-04-03T13:19:20;12.20;23.90
16827;DHT22;8530;49.540;8.576;2023-04-03T13:21:54;12.00;23.90
16827;DHT22;8530;49.540;8.576;2023-04-03T13:24:23;11.60;23.90
16827;DHT22;8530;49.540;8.576;2023-04-03T13:26:51;11.50;24.30
16827;DHT22;8530;49.540;8.576;2023-04-03T13:29:22;11.80;24.70
16827;DHT22;8530;49.540;8.576;2023-04-03T13:31:52;12.10;24.70
16827;DHT22;8530;49.540;8.576;2023-04-03T13:34:20;12.40;24.90
16827;DHT22;8530;49.540;8.576;2023-04-03T13:36:56;12.30;24.60
16827;DHT22;8530;49.540;8.576;2023-04-03T13:39:25;12.00;24.50
16827;DHT22;8530;49.540;8.576;2023-04-03T13:41:53;11.70;24.40
16827;DHT22;8530;49.540;8.576;2023-04-03T13:44:32;11.50;24.50
16827;DHT22;8530;49.540;8.576;2023-04-03T13:47:16;11.40;24.70
16827;DHT22;8530;49.540;8.576;2023-04-03T13:49:45;11.30;24.80
16827;DHT22;8530;49.540;8.576;2023-04-03T13:52:24;11.50;24.90
16827;DHT22;8530;49.540;8.576;2023-04-03T13:58:22;12.70;24.90
16827;DHT22;8530;49.540;8.576;2023-04-03T14:00:51;12.90;24.60
16827;DHT22;8530;49.540;8.576;2023-04-03T14:03:22;12.80;24.30
16827;DHT22;8530;49.540;8.576;2023-04-03T14:05:50;12.50;24.00
16827;DHT22;8530;49.540;8.576;2023-04-03T14:08:19;12.20;24.10
16827;DHT22;8530;49.540;8.576;2023-04-03T14:10:48;12.10;24.10
16827;DHT22;8530;49.540;8.576;2023-04-03T14:13:17;11.90;23.80
16827;DHT22;8530;49.540;8.576;2023-04-03T14:15:45;11.80;23.90
16827;DHT22;8530;49.540;8.576;2023-04-03T14:18:14;11.80;23.80
16827;DHT22;8530;49.540;8.576;2023-04-03T14:20:41;11.80;23.80
16827;DHT22;8530;49.540;8.576;2023-04-03T14:23:08;11.80;23.80
16827;DHT22;8530;49.540;8.576;2023-04-03T14:25:37;11.80;23.70
16827;DHT22;8530;49.540;8.576;2023-04-03T14:28:35;12.00;23.80
16827;DHT22;8530;49.540;8.576;2023-04-03T14:34:24;12.00;23.70
16827;DHT22;8530;49.540;8.576;2023-04-03T14:40:16;12.10;23.80
16827;DHT22;8530;49.540;8.576;2023-04-03T14:42:44;12.20;23.90
16827;DHT22;8530;49.540;8.576;2023-04-03T14:45:13;12.00;23.70
16827;DHT22;8530;49.540;8.576;2023-04-03T14:47:44;11.70;23.60
16827;DHT22;8530;49.540;8.576;2023-04-03T14:50:15;11.40;23.60
16827;DHT22;8530;49.540;8.576;2023-04-03T14:52:43;11.20;23.70
16827;DHT22;8530;49.540;8.576;2023-04-03T14:55:12;11.10;23.70
16827;DHT22;8530;49.540;8.576;2023-04-03T14:57:39;11.10;23.70
16827;DHT22;8530;49.540;8.576;2023-04-03T15:00:13;11.10;23.60
16827;DHT22;8530;49.540;8.576;2023-04-03T15:02:40;11.10;23.50
16827;DHT22;8530;49.540;8.576;2023-04-03T15:05:09;11.10;23.50
16827;DHT22;8530;49.540;8.576;2023-04-03T15:07:37;11.00;23.40
16827;DHT22;8530;49.540;8.576;2023-04-03T15:10:16;11.00;23.50
16827;DHT22;8530;49.540;8.576;2023-04-03T15:12:43;11.10;23.60
16827;DHT22;8530;49.540;8.576;2023-04-03T15:15:13;11.00;23.30
16827;DHT22;8530;49.540;8.576;2023-04-03T15:17:40;11.00;23.30
16827;DHT22;8530;49.540;8.576;2023-04-03T15:20:12;11.00;23.70
16827;DHT22;8530;49.540;8.576;2023-04-03T15:22:39;11.00;23.30
16827;DHT22;8530;49.540;8.576;2023-04-03T15:25:06;11.00;23.40
16827;DHT22;8530;49.540;8.576;2023-04-03T15:27:33;11.00;23.40
16827;DHT22;8530;49.540;8.576;2023-04-03T15:30:00;11.00;23.50
16827;DHT22;8530;49.540;8.576;2023-04-03T15:32:28;11.00;23.50
16827;DHT22;8530;49.540;8.576;2023-04-03T15:34:55;11.10;23.60
16827;DHT22;8530;49.540;8.576;2023-04-03T15:37:21;11.10;23.70
16827;DHT22;8530;49.540;8.576;2023-04-03T15:39:48;11.20;23.70
16827;DHT22;8530;49.540;8.576;2023-04-03T15:42:15;11.30;23.70
16827;DHT22;8530;49.540;8.576;2023-04-03T15:44:41;11.30;23.80
16827;DHT22;8530;49.540;8.576;2023-04-03T15:47:08;11.40;23.90
16827;DHT22;8530;49.540;8.576;2023-04-03T15:49:37;11.40;23.90
16827;DHT22;8530;49.540;8.576;2023-04-03T15:52:04;11.40;24.00
16827;DHT22;8530;49.540;8.576;2023-04-03T15:54:31;11.40;23.90
16827;DHT22;8530;49.540;8.576;2023-04-03T15:56:58;11.50;24.10
16827;DHT22;8530;49.540;8.576;2023-04-03T15:59:25;11.40;24.00
16827;DHT22;8530;49.540;8.576;2023-04-03T16:01:52;11.30;24.00
16827;DHT22;8530;49.540;8.576;2023-04-03T16:04:19;11.30;24.10
16827;DHT22;8530;49.540;8.576;2023-04-03T16:06:48;11.20;24.00
16827;DHT22;8530;49.540;8.576;2023-04-03T16:09:15;11.20;23.90
16827;DHT22;8530;49.540;8.576;2023-04-03T16:11:41;11.00;23.80
16827;DHT22;8530;49.540;8.576;2023-04-03T16:14:09;10.80;23.80
16827;DHT22;8530;49.540;8.576;2023-04-03T16:16:36;10.80;23.90
16827;DHT22;8530;49.540;8.576;2023-04-03T16:19:04;10.70;23.80
16827;DHT22;8530;49.540;8.576;2023-04-03T16:21:31;10.70;23.80
16827;DHT22;8530;49.540;8.576;2023-04-03T16:24:00;10.70;23.80
16827;DHT22;8530;49.540;8.576;2023-04-03T16:26:27;10.60;23.80
16827;DHT22;8530;49.540;8.576;2023-04-03T16:28:54;10.60;23.90